Time;durP1;ratioP1;P1;durP2;ratioP2;P2;SDS_P1;SDS_P2;PMS_P1;PMS_P2;Temp;Humidity;BMP_temperature;BMP_pressure;BME280_temperature;BME280_humidity;BME280_pressure;Samples;Min_cycle;Max_cycle;Signal;HPM_P1;HPM_P2
2023/03/17 00:00:18;;;;;;;3.73;3.53;;;11.30;76.90;;;;;;4915375;29;20778;-74
2023/03/17 00:02:46;;;;;;;4.00;3.70;;;11.30;77.20;;;;;;4916243;29;20781;-74
2023/03/17 00:05:16;;;;;;;3.50;3.20;;;11.30;77.00;;;;;;4915647;29;20417;-74
2023/03/17 00:07:43;;;;;;;4.00;3.27;;;11.40;76.60;;;;;;4917742;29;20450;-74
2023/03/17 00:10:38;;;;;;;4.00;3.53;;;11.40;76.70;;;;;;4919298;29;20424;-74
2023/03/17 00:13:04;;;;;;;3.60;3.30;;;11.40;77.00;;;;;;4907576;29;20494;-74
2023/03/17 00:15:31;;;;;;;4.37;4.07;;;11.50;76.50;;;;;;4919285;29;20423;-74
2023/03/17 00:17:57;;;;;;;3.60;3.30;;;11.60;76.70;;;;;;4918595;29;20919;-74
2023/03/17 00:20:29;;;;;;;4.10;3.70;;;11.30;75.90;;;;;;4919141;29;20419;-74
2023/03/17 00:22:58;;;;;;;4.20;3.80;;;11.40;77.30;;;;;;4919891;29;20413;-74
2023/03/17 00:25:26;;;;;;;4.13;3.73;;;11.50;76.60;;;;;;4919165;29;20780;-74
2023/03/17 00:27:52;;;;;;;4.43;4.03;;;11.50;76.00;;;;;;4919884;29;20904;-74
2023/03/17 00:30:21;;;;;;;3.80;3.50;;;11.50;76.00;;;;;;4918997;29;20409;-74
2023/03/17 00:32:49;;;;;;;3.70;3.50;;;11.50;76.30;;;;;;4919761;29;20432;-74
2023/03/17 00:35:21;;;;;;;4.80;4.00;;;11.50;75.60;;;;;;4918972;29;20415;-75
2023/03/17 00:37:49;;;;;;;4.47;4.10;;;11.50;76.00;;;;;;4918192;29;20422;-74
2023/03/17 00:40:21;;;;;;;4.30;3.90;;;11.50;76.00;;;;;;4933481;29;20410;-74
2023/03/17 00:42:49;;;;;;;4.60;4.30;;;11.50;75.90;;;;;;4919520;29;20851;-74
2023/03/17 00:45:15;;;;;;;4.33;3.90;;;11.50;75.40;;;;;;4918923;29;20553;-74
2023/03/17 00:47:42;;;;;;;4.30;4.00;;;11.50;76.00;;;;;;4933938;29;21033;-74
2023/03/17 00:50:28;;;;;;;4.53;4.13;;;11.60;76.40;;;;;;4918977;29;20984;-74
2023/03/17 00:52:56;;;;;;;4.60;4.20;;;11.70;75.70;;;;;;4919312;29;20528;-74
2023/03/17 00:55:23;;;;;;;4.03;3.73;;;11.60;75.90;;;;;;4918891;29;20429;-75
2023/03/17 00:57:49;;;;;;;4.30;4.00;;;11.60;76.30;;;;;;4919064;29;20442;-74
2023/03/17 01:00:25;;;;;;;4.33;4.03;;;11.70;76.30;;;;;;4918215;29;20458;-75
2023/03/17 01:02:53;;;;;;;3.97;3.67;;;11.70;75.70;;;;;;4918882;29;20421;-74
2023/03/17 01:05:21;;;;;;;4.20;3.90;;;11.70;76.20;;;;;;4918692;29;20951;-74
2023/03/17 01:07:51;;;;;;;4.60;4.20;;;11.70;76.40;;;;;;4918977;29;20418;-74
2023/03/17 01:10:26;;;;;;;4.17;3.87;;;11.70;77.10;;;;;;4918162;29;20413;-74
2023/03/17 01:12:57;;;;;;;4.27;3.87;;;11.70;76.90;;;;;;4918640;29;20425;-74
2023/03/17 01:15:26;;;;;;;4.10;3.80;;;11.80;76.60;;;;;;4918416;29;20509;-74
2023/03/17 01:17:52;;;;;;;5.87;4.20;;;11.80;76.80;;;;;;4932715;29;20425;-74
2023/03/17 01:20:27;;;;;;;5.40;3.80;;;11.70;76.00;;;;;;4916911;29;20925;-74
2023/03/17 01:22:53;;;;;;;4.03;3.73;;;11.70;76.50;;;;;;4933301;29;20174;-74
2023/03/17 01:25:19;;;;;;;4.13;3.83;;;11.70;75.70;;;;;;4918047;29;20932;-74
2023/03/17 01:27:46;;;;;;;4.17;3.77;;;11.60;76.10;;;;;;4918867;29;20270;-74
2023/03/17 01:30:30;;;;;;;4.30;3.90;;;11.60;75.50;;;;;;4917973;29;20430;-75
2023/03/17 01:32:57;;;;;;;4.53;4.10;;;11.50;76.10;;;;;;4918593;29;20804;-75
2023/03/17 01:35:28;;;;;;;3.63;3.43;;;11.50;77.00;;;;;;4932806;29;20454;-74
2023/03/17 01:37:56;;;;;;;4.80;4.30;;;11.40;76.50;;;;;;4918615;29;20415;-75
2023/03/17 01:40:26;;;;;;;5.20;4.60;;;11.50;76.60;;;;;;4917798;29;20908;-75
2023/03/17 01:43:07;;;;;;;4.13;3.83;;;11.50;76.40;;;;;;4918531;29;20418;-75
2023/03/17 01:46:10;;;;;;;4.00;3.70;;;11.60;77.10;;;;;;4880195;29;20808;-73
2023/03/17 01:48:41;;;;;;;4.03;3.73;;;11.60;76.00;;;;;;4894554;29;20514;-73
2023/03/17 01:51:09;;;;;;;4.00;3.70;;;11.60;76.30;;;;;;4880743;29;20496;-73
2023/03/17 01:53:37;;;;;;;3.70;3.40;;;11.50;76.50;;;;;;4879977;29;20468;-72
2023/03/17 01:56:04;;;;;;;4.80;3.43;;;11.50;76.20;;;;;;4880241;29;20812;-73
2023/03/17 01:58:30;;;;;;;3.80;3.50;;;11.50;76.00;;;;;;4879959;29;20416;-73
2023/03/17 02:00:56;;;;;;;4.47;4.17;;;11.50;76.30;;;;;;4880093;29;21035;-73
2023/03/17 02:03:22;;;;;;;4.10;3.80;;;11.70;76.10;;;;;;4879929;29;20511;-73
2023/03/17 02:05:51;;;;;;;3.50;3.30;;;11.70;76.70;;;;;;4880133;29;20625;-73
2023/03/17 02:08:17;;;;;;;4.10;3.70;;;11.60;75.50;;;;;;4879815;29;20502;-73
2023/03/17 02:10:44;;;;;;;3.90;3.60;;;11.60;76.00;;;;;;4880006;29;20511;-73
2023/03/17 02:13:12;;;;;;;3.73;3.43;;;11.70;76.00;;;;;;4880323;29;20430;-73
2023/03/17 02:15:45;;;;;;;3.83;3.57;;;11.70;75.70;;;;;;4893959;29;20510;-72
2023/03/17 02:18:11;;;;;;;4.17;3.77;;;11.50;75.40;;;;;;4880201;29;20417;-72
2023/03/17 02:20:37;;;;;;;3.83;3.63;;;11.50;75.80;;;;;;4879418;29;20463;-73
2023/03/17 02:23:05;;;;;;;3.93;3.70;;;11.60;76.40;;;;;;4880055;29;20483;-73
2023/03/17 02:25:33;;;;;;;4.30;3.90;;;11.70;75.50;;;;;;4879463;29;20176;-73
2023/03/17 02:28:07;;;;;;;4.00;3.70;;;11.50;75.50;;;;;;4879969;29;20752;-73
2023/03/17 02:30:34;;;;;;;4.27;3.87;;;11.50;75.80;;;;;;4878548;29;20476;-72
2023/03/17 02:33:01;;;;;;;4.27;3.97;;;11.70;76.20;;;;;;4879813;29;20420;-73
2023/03/17 02:35:27;;;;;;;4.40;4.00;;;11.70;76.00;;;;;;4879301;29;20479;-73
2023/03/17 02:37:53;;;;;;;3.80;3.50;;;11.80;76.40;;;;;;4879588;29;20412;-73
2023/03/17 02:40:18;;;;;;;3.70;3.50;;;11.80;76.00;;;;;;4879144;29;20416;-73
2023/03/17 02:42:44;;;;;;;4.10;3.80;;;11.80;75.10;;;;;;4879568;29;20185;-73
2023/03/17 02:45:11;;;;;;;4.63;4.23;;;11.80;75.90;;;;;;4915085;29;20237;-73
2023/03/17 02:47:37;;;;;;;4.60;4.30;;;11.80;76.40;;;;;;4916907;29;20196;-73
2023/03/17 02:50:04;;;;;;;4.33;4.03;;;11.80;76.80;;;;;;4917435;29;20501;-73
2023/03/17 02:52:31;;;;;;;4.10;3.80;;;11.80;76.00;;;;;;4915279;29;20425;-72
2023/03/17 02:54:57;;;;;;;4.33;4.03;;;11.60;76.20;;;;;;4917071;29;20767;-73
2023/03/17 02:57:22;;;;;;;5.00;4.60;;;11.50;75.80;;;;;;4916474;29;20426;-72
2023/03/17 02:59:48;;;;;;;4.47;4.07;;;11.50;75.70;;;;;;4917204;29;20426;-72
2023/03/17 03:02:15;;;;;;;4.10;3.80;;;11.50;76.40;;;;;;4915576;29;20225;-73
2023/03/17 03:04:42;;;;;;;4.23;4.00;;;11.50;75.60;;;;;;4916851;29;20416;-73
2023/03/17 03:07:08;;;;;;;4.60;4.30;;;11.30;76.10;;;;;;4916852;29;20443;-73
2023/03/17 03:09:35;;;;;;;3.87;3.67;;;11.40;76.90;;;;;;4916186;29;20419;-73
2023/03/17 03:12:01;;;;;;;4.03;3.73;;;11.50;76.20;;;;;;4916697;29;20418;-74
2023/03/17 03:14:27;;;;;;;4.00;3.67;;;11.50;76.30;;;;;;4916134;29;20414;-73
2023/03/17 03:16:53;;;;;;;4.60;3.97;;;11.60;75.80;;;;;;4931589;29;20738;-73
2023/03/17 03:19:19;;;;;;;5.10;3.90;;;11.60;76.10;;;;;;4915818;29;20237;-73
2023/03/17 03:21:45;;;;;;;4.07;3.67;;;11.50;76.40;;;;;;4916607;29;20497;-73
2023/03/17 03:24:11;;;;;;;4.13;3.83;;;11.60;76.60;;;;;;4916577;29;20888;-73
2023/03/17 03:26:37;;;;;;;3.60;3.40;;;11.50;75.90;;;;;;4916020;29;20229;-73
2023/03/17 03:29:04;;;;;;;3.33;3.13;;;11.50;75.20;;;;;;4916609;29;20409;-73
2023/03/17 03:31:30;;;;;;;3.60;3.30;;;11.50;75.40;;;;;;4916001;29;20444;-73
2023/03/17 03:33:56;;;;;;;3.90;3.50;;;11.50;75.30;;;;;;4916459;29;20414;-73
2023/03/17 03:36:22;;;;;;;3.97;3.63;;;11.50;75.50;;;;;;4915916;29;20185;-73
2023/03/17 03:38:48;;;;;;;3.87;3.57;;;11.60;75.50;;;;;;4916204;29;20420;-73
2023/03/17 03:41:13;;;;;;;4.40;4.00;;;11.60;75.40;;;;;;4916211;29;20465;-73
2023/03/17 03:43:40;;;;;;;4.30;3.93;;;11.60;75.70;;;;;;4929965;29;20237;-73
2023/03/17 03:46:06;;;;;;;4.47;4.17;;;11.60;75.00;;;;;;4916472;29;20524;-73
2023/03/17 03:48:32;;;;;;;5.70;3.40;;;11.50;74.00;;;;;;4915831;29;20525;-73
2023/03/17 03:51:00;;;;;;;3.67;3.37;;;11.40;74.70;;;;;;4916381;29;20878;-72
2023/03/17 03:53:27;;;;;;;3.27;3.07;;;11.40;74.10;;;;;;4915724;29;20474;-73
2023/03/17 03:55:54;;;;;;;4.23;3.87;;;11.40;74.60;;;;;;4916036;29;20419;-73
2023/03/17 03:58:20;;;;;;;3.63;3.33;;;11.50;75.70;;;;;;4916004;29;20913;-75
2023/03/17 04:00:46;;;;;;;3.67;3.37;;;11.50;73.80;;;;;;4916432;29;20529;-73
2023/03/17 04:03:13;;;;;;;3.67;3.37;;;11.50;73.80;;;;;;4914869;29;20919;-73
2023/03/17 04:05:38;;;;;;;3.97;3.57;;;11.60;74.90;;;;;;4915651;29;20190;-73
2023/03/17 04:08:05;;;;;;;4.60;3.53;;;11.70;75.20;;;;;;4916179;29;20756;-73
2023/03/17 04:10:31;;;;;;;3.87;3.53;;;11.80;74.60;;;;;;4915277;29;20286;-73
2023/03/17 04:12:57;;;;;;;3.70;3.50;;;11.70;73.50;;;;;;4916298;29;20427;-73
2023/03/17 04:15:23;;;;;;;4.00;3.70;;;11.70;73.90;;;;;;4915576;29;20420;-74
2023/03/17 04:17:49;;;;;;;3.70;3.40;;;11.70;73.60;;;;;;4916074;29;20186;-74
2023/03/17 04:20:18;;;;;;;4.10;3.50;;;11.60;72.60;;;;;;4915987;29;20951;-73
2023/03/17 04:22:43;;;;;;;3.80;3.50;;;11.50;73.00;;;;;;4915181;29;20416;-73
2023/03/17 04:25:13;;;;;;;3.53;3.30;;;11.60;73.30;;;;;;4914942;29;20772;-73
2023/03/17 04:27:43;;;;;;;4.43;3.57;;;11.60;73.30;;;;;;4915239;29;20651;-73
2023/03/17 04:30:13;;;;;;;3.67;3.37;;;11.50;73.20;;;;;;4915768;29;20750;-72
2023/03/17 04:32:39;;;;;;;3.73;3.43;;;11.50;72.70;;;;;;4915716;29;20436;-73
2023/03/17 04:35:07;;;;;;;3.30;3.10;;;11.20;72.30;;;;;;4915904;29;20431;-73
2023/03/17 04:37:33;;;;;;;3.87;3.57;;;11.30;73.40;;;;;;4915581;29;20419;-73
2023/03/17 04:39:59;;;;;;;3.53;3.27;;;11.40;74.30;;;;;;4914782;29;20430;-73
2023/03/17 04:42:25;;;;;;;3.77;3.47;;;11.40;73.70;;;;;;4915217;29;20304;-73
2023/03/17 04:44:51;;;;;;;3.37;3.17;;;11.30;72.60;;;;;;4930431;29;20458;-73
2023/03/17 04:47:16;;;;;;;3.70;3.50;;;11.40;73.30;;;;;;4915574;29;20403;-73
2023/03/17 04:49:42;;;;;;;4.60;4.20;;;11.30;73.00;;;;;;4915234;29;20492;-73
2023/03/17 04:52:08;;;;;;;4.13;3.83;;;11.30;72.60;;;;;;4915773;29;20186;-73
2023/03/17 04:54:34;;;;;;;3.77;3.47;;;11.30;73.00;;;;;;4932437;29;20266;-73
2023/03/17 04:57:00;;;;;;;3.90;3.70;;;11.10;73.00;;;;;;4918933;29;20175;-73
2023/03/17 04:59:26;;;;;;;3.97;3.67;;;10.90;73.70;;;;;;4918507;29;20898;-73
2023/03/17 05:01:51;;;;;;;3.80;3.50;;;11.10;73.80;;;;;;4919027;29;20218;-73
2023/03/17 05:04:17;;;;;;;4.10;3.80;;;11.20;73.80;;;;;;4918878;29;20407;-73
2023/03/17 05:06:43;;;;;;;3.90;3.60;;;11.10;72.80;;;;;;4916875;29;20925;-73
2023/03/17 05:09:09;;;;;;;4.33;4.03;;;11.20;73.40;;;;;;4918970;29;20177;-73
2023/03/17 05:11:35;;;;;;;4.00;3.77;;;11.30;73.00;;;;;;4918629;29;20543;-73
2023/03/17 05:14:00;;;;;;;3.50;3.30;;;11.20;72.90;;;;;;4918413;29;20429;-73
2023/03/17 05:16:26;;;;;;;4.77;3.67;;;11.20;72.60;;;;;;4917985;29;20416;-73
2023/03/17 05:18:52;;;;;;;4.70;4.40;;;11.30;73.10;;;;;;4917558;29;20190;-73
2023/03/17 05:21:17;;;;;;;3.80;3.50;;;11.40;72.80;;;;;;4933374;29;20210;-73
2023/03/17 05:23:43;;;;;;;3.80;3.40;;;11.40;72.30;;;;;;4917873;29;20188;-73
2023/03/17 05:26:09;;;;;;;3.90;3.60;;;11.50;72.70;;;;;;4918731;29;20183;-73
2023/03/17 05:28:35;;;;;;;3.60;3.40;;;11.50;72.00;;;;;;4917859;29;20644;-73
2023/03/17 05:31:02;;;;;;;4.60;4.30;;;11.40;71.40;;;;;;4918881;29;20474;-73
2023/03/17 05:33:27;;;;;;;4.83;4.50;;;11.30;72.50;;;;;;4917707;29;20180;-74
2023/03/17 05:35:53;;;;;;;4.43;4.13;;;11.40;72.60;;;;;;4933153;29;20518;-73
2023/03/17 05:38:19;;;;;;;3.83;3.53;;;11.30;72.20;;;;;;4918170;29;20647;-73
2023/03/17 05:40:49;;;;;;;5.00;4.50;;;11.20;72.20;;;;;;4917834;29;20753;-74
2023/03/17 05:43:15;;;;;;;4.10;3.80;;;11.20;72.80;;;;;;4918248;29;20239;-74
2023/03/17 05:45:41;;;;;;;3.77;3.47;;;11.20;73.00;;;;;;4917774;29;20405;-74
2023/03/17 05:48:07;;;;;;;5.50;4.63;;;11.20;72.70;;;;;;4918297;29;20506;-74
2023/03/17 05:50:33;;;;;;;4.03;3.70;;;11.30;72.90;;;;;;4917981;29;20419;-74
2023/03/17 05:52:59;;;;;;;3.70;3.50;;;11.40;73.70;;;;;;4918199;29;20196;-74
2023/03/17 05:55:28;;;;;;;4.50;4.10;;;11.50;74.00;;;;;;4918218;29;20185;-74
2023/03/17 05:57:53;;;;;;;4.53;4.10;;;11.50;73.00;;;;;;4932834;29;20508;-74
2023/03/17 06:00:20;;;;;;;4.40;4.10;;;11.50;73.20;;;;;;4917756;29;20438;-74
2023/03/17 06:02:46;;;;;;;3.97;3.57;;;11.50;72.80;;;;;;4917359;29;20187;-74
2023/03/17 06:05:12;;;;;;;4.77;4.33;;;11.50;72.70;;;;;;4917775;29;20817;-74
2023/03/17 06:07:38;;;;;;;4.20;3.90;;;11.60;72.80;;;;;;4917293;29;20490;-74
2023/03/17 06:10:05;;;;;;;5.20;4.70;;;11.60;72.30;;;;;;4917931;29;20314;-74
2023/03/17 06:12:31;;;;;;;4.33;4.03;;;11.50;73.00;;;;;;4917340;29;20175;-74
2023/03/17 06:14:59;;;;;;;7.10;6.40;;;11.40;72.80;;;;;;4917606;29;20497;-74
2023/03/17 06:17:25;;;;;;;7.17;6.00;;;11.40;73.50;;;;;;4917683;29;20813;-74
2023/03/17 06:19:51;;;;;;;4.93;4.63;;;11.50;73.40;;;;;;4917325;29;20411;-74
2023/03/17 06:22:16;;;;;;;4.60;4.30;;;11.50;73.40;;;;;;4932143;29;20274;-74
2023/03/17 06:24:42;;;;;;;4.43;4.13;;;11.60;74.10;;;;;;4916974;29;20181;-74
2023/03/17 06:27:09;;;;;;;4.37;4.07;;;11.60;73.50;;;;;;4917375;29;20182;-74
2023/03/17 06:29:36;;;;;;;4.07;3.77;;;11.60;73.40;;;;;;4917221;29;20242;-74
2023/03/17 06:32:03;;;;;;;5.23;4.70;;;11.60;73.50;;;;;;4917825;29;20505;-74
2023/03/17 06:34:29;;;;;;;4.57;4.27;;;11.60;73.20;;;;;;4917418;29;20451;-76
2023/03/17 06:36:55;;;;;;;5.97;4.10;;;11.70;73.50;;;;;;4932204;29;20419;-75
2023/03/17 06:39:21;;;;;;;4.60;4.30;;;11.70;73.10;;;;;;4917393;29;20462;-74
2023/03/17 06:41:47;;;;;;;5.87;3.83;;;11.80;73.00;;;;;;4916584;29;20470;-74
2023/03/17 06:44:13;;;;;;;5.33;4.93;;;11.90;73.70;;;;;;4916805;29;20559;-74
2023/03/17 06:46:40;;;;;;;8.03;6.33;;;11.90;73.80;;;;;;4916458;29;20710;-75
2023/03/17 06:49:07;;;;;;;5.30;4.90;;;11.90;73.20;;;;;;4915806;29;20411;-74
2023/03/17 06:51:35;;;;;;;6.80;6.20;;;12.00;74.10;;;;;;4916668;29;20434;-76
2023/03/17 06:54:01;;;;;;;4.73;4.33;;;11.90;74.90;;;;;;4916688;29;20724;-74
2023/03/17 06:56:32;;;;;;;4.67;4.33;;;12.00;74.80;;;;;;4916658;29;20427;-74
2023/03/17 06:58:58;;;;;;;4.90;4.50;;;12.00;74.00;;;;;;4915829;29;20915;-74
2023/03/17 07:01:25;;;;;;;6.20;5.60;;;12.00;73.90;;;;;;4916531;29;20462;-74
2023/03/17 07:03:52;;;;;;;7.47;6.77;;;12.10;73.60;;;;;;4916336;29;20187;-74
2023/03/17 07:06:17;;;;;;;6.13;5.53;;;12.10;74.70;;;;;;4915330;29;20462;-74
2023/03/17 07:08:45;;;;;;;5.00;4.60;;;12.10;75.10;;;;;;4916220;29;20440;-73
2023/03/17 07:11:11;;;;;;;4.43;4.13;;;12.10;75.70;;;;;;4916868;29;20174;-73
2023/03/17 07:13:38;;;;;;;16.13;11.80;;;12.20;75.20;;;;;;4916501;29;20429;-74
2023/03/17 07:16:04;;;;;;;5.97;5.10;;;12.20;74.40;;;;;;4915421;29;20189;-73
2023/03/17 07:18:33;;;;;;;4.53;4.20;;;12.20;73.60;;;;;;4916672;29;20419;-73
2023/03/17 07:21:00;;;;;;;4.70;4.30;;;12.10;73.50;;;;;;4916543;29;20470;-73
2023/03/17 07:23:28;;;;;;;5.13;4.63;;;12.10;74.20;;;;;;4916608;29;20413;-73
2023/03/17 07:25:54;;;;;;;4.40;4.00;;;12.00;73.40;;;;;;4916096;29;20898;-73
2023/03/17 07:28:20;;;;;;;5.20;4.10;;;12.10;74.30;;;;;;4916367;29;20410;-73
2023/03/17 07:30:52;;;;;;;4.63;4.20;;;12.20;75.00;;;;;;4915697;29;20426;-73
2023/03/17 07:33:21;;;;;;;5.87;4.10;;;12.30;74.90;;;;;;4916637;29;20470;-73
2023/03/17 07:35:48;;;;;;;4.20;3.90;;;12.30;74.40;;;;;;4930597;29;20414;-73
2023/03/17 07:38:15;;;;;;;5.03;4.63;;;12.30;73.80;;;;;;4916129;29;20855;-73
2023/03/17 07:40:42;;;;;;;4.60;3.63;;;12.30;74.20;;;;;;4930493;29;20467;-73
2023/03/17 07:43:08;;;;;;;4.03;3.80;;;12.40;74.50;;;;;;4916197;29;20422;-73
2023/03/17 07:45:34;;;;;;;3.87;3.67;;;12.60;75.00;;;;;;4915947;29;20437;-74
2023/03/17 07:48:03;;;;;;;4.40;4.10;;;12.80;74.30;;;;;;4916200;29;20445;-73
2023/03/17 07:50:33;;;;;;;4.37;4.07;;;12.80;73.60;;;;;;4916047;29;20416;-73
2023/03/17 07:52:59;;;;;;;4.37;4.00;;;12.80;73.50;;;;;;4914999;29;20477;-74
2023/03/17 07:55:25;;;;;;;4.43;4.03;;;12.70;74.00;;;;;;4931197;29;20793;-74
2023/03/17 07:57:51;;;;;;;3.83;3.53;;;12.90;74.40;;;;;;4915765;29;20423;-74
2023/03/17 08:00:22;;;;;;;4.67;4.27;;;13.00;74.00;;;;;;4914381;29;20484;-74
2023/03/17 08:02:49;;;;;;;4.20;3.90;;;13.00;73.80;;;;;;4914884;29;20418;-74
2023/03/17 08:05:15;;;;;;;4.40;4.10;;;12.80;73.10;;;;;;4916498;29;20408;-74
2023/03/17 08:07:42;;;;;;;4.80;4.50;;;12.80;73.30;;;;;;4915752;29;20416;-74
2023/03/17 08:10:10;;;;;;;5.97;5.37;;;13.00;74.50;;;;;;4915059;29;20418;-74
2023/03/17 08:12:36;;;;;;;3.77;3.53;;;13.10;74.40;;;;;;4915682;29;20429;-75
2023/03/17 08:15:02;;;;;;;4.37;4.00;;;13.20;73.90;;;;;;4915945;29;20426;-74
2023/03/17 08:17:27;;;;;;;7.67;5.03;;;13.30;74.00;;;;;;4916156;29;20442;-74
2023/03/17 08:19:54;;;;;;;4.80;4.30;;;13.30;72.30;;;;;;4915568;29;20182;-74
2023/03/17 08:22:19;;;;;;;4.20;3.90;;;13.20;72.20;;;;;;4916097;29;20253;-74
2023/03/17 08:24:45;;;;;;;4.47;4.17;;;13.20;73.00;;;;;;4930128;29;20450;-74
2023/03/17 08:27:11;;;;;;;3.93;3.53;;;13.20;72.40;;;;;;4916002;29;20185;-74
2023/03/17 08:29:37;;;;;;;3.80;3.50;;;13.20;74.10;;;;;;4918317;29;20184;-74
2023/03/17 08:32:03;;;;;;;4.03;3.73;;;13.30;73.40;;;;;;4919686;29;20421;-74
2023/03/17 08:34:29;;;;;;;4.20;3.80;;;13.50;73.50;;;;;;4919653;29;20429;-74
2023/03/17 08:36:56;;;;;;;3.60;3.33;;;13.50;72.40;;;;;;4918963;29;20420;-74
2023/03/17 08:39:22;;;;;;;4.10;3.70;;;13.60;72.00;;;;;;4919680;29;20214;-74
2023/03/17 08:41:47;;;;;;;4.10;3.70;;;13.70;72.20;;;;;;4918644;29;20466;-74
2023/03/17 08:44:13;;;;;;;4.60;4.23;;;13.80;72.30;;;;;;4919218;29;20237;-74
2023/03/17 08:46:40;;;;;;;4.10;3.80;;;14.00;72.80;;;;;;4933515;29;20607;-75
2023/03/17 08:49:06;;;;;;;4.37;3.97;;;13.90;71.30;;;;;;4919072;29;20182;-74
2023/03/17 08:51:35;;;;;;;4.50;4.10;;;14.00;72.10;;;;;;4919225;29;20428;-74
2023/03/17 08:54:02;;;;;;;4.00;3.70;;;14.00;72.00;;;;;;4918405;29;20426;-74
2023/03/17 08:56:28;;;;;;;3.83;3.53;;;14.10;71.50;;;;;;4919313;29;20404;-74
2023/03/17 08:58:54;;;;;;;5.13;3.73;;;14.20;71.00;;;;;;4918575;29;20415;-74
2023/03/17 09:01:21;;;;;;;4.53;4.13;;;14.20;70.20;;;;;;4919178;29;20215;-74
2023/03/17 09:03:48;;;;;;;4.33;4.03;;;14.00;70.50;;;;;;4918559;29;20186;-74
2023/03/17 09:06:14;;;;;;;4.47;4.10;;;14.10;71.20;;;;;;4919198;29;20416;-75
2023/03/17 09:08:46;;;;;;;4.17;3.87;;;14.20;71.00;;;;;;4918526;29;20741;-75
2023/03/17 09:11:19;;;;;;;4.53;4.13;;;14.30;70.90;;;;;;4917810;29;20428;-74
2023/03/17 09:13:46;;;;;;;5.80;3.60;;;14.40;71.20;;;;;;4932571;29;20423;-74
2023/03/17 09:16:13;;;;;;;5.37;3.93;;;14.50;71.30;;;;;;4917329;29;20437;-74
2023/03/17 09:18:40;;;;;;;4.63;4.23;;;14.70;70.80;;;;;;4917056;29;20754;-75
2023/03/17 09:21:06;;;;;;;4.43;3.97;;;14.80;70.60;;;;;;4918819;29;20482;-74
2023/03/17 09:23:32;;;;;;;5.10;4.70;;;14.80;69.80;;;;;;4918697;29;21002;-75
2023/03/17 09:25:58;;;;;;;4.43;4.03;;;15.00;71.30;;;;;;4918112;29;20420;-75
2023/03/17 09:28:24;;;;;;;4.00;3.70;;;15.10;69.20;;;;;;4918643;29;20425;-75
2023/03/17 09:30:51;;;;;;;5.37;4.23;;;15.30;70.70;;;;;;4918026;29;20417;-75
2023/03/17 09:33:17;;;;;;;4.37;4.07;;;15.40;69.50;;;;;;4917302;29;20636;-75
2023/03/17 09:35:43;;;;;;;4.20;3.80;;;15.60;69.90;;;;;;4917919;29;20418;-75
2023/03/17 09:38:09;;;;;;;4.50;4.20;;;15.80;70.90;;;;;;4917305;29;20493;-74
2023/03/17 09:40:53;;;;;;;4.63;4.23;;;16.10;71.40;;;;;;4918020;29;20261;-74
2023/03/17 09:43:40;;;;;;;5.07;4.67;;;16.30;68.40;;;;;;4917172;29;21236;-74
2023/03/17 09:46:39;;;;;;;4.03;3.73;;;16.50;67.10;;;;;;4918344;29;20501;-74
2023/03/17 09:49:12;;;;;;;5.10;3.93;;;16.50;64.80;;;;;;4917892;29;20438;-74
2023/03/17 09:51:38;;;;;;;4.23;3.87;;;16.70;66.40;;;;;;4918384;29;20413;-74
2023/03/17 09:54:14;;;;;;;5.10;3.70;;;16.90;67.00;;;;;;4917592;29;20410;-74
2023/03/17 09:56:44;;;;;;;4.40;4.10;;;17.10;66.20;;;;;;4918246;29;20411;-75
2023/03/17 09:59:29;;;;;;;4.20;3.97;;;17.30;65.70;;;;;;4918222;29;20411;-74
2023/03/17 10:01:55;;;;;;;4.27;3.87;;;17.40;62.80;;;;;;4917483;29;20454;-75
2023/03/17 10:04:21;;;;;;;4.27;3.97;;;17.40;61.80;;;;;;4917750;29;20419;-74
2023/03/17 10:06:48;;;;;;;3.87;3.63;;;17.30;63.00;;;;;;4917400;29;20891;-74
2023/03/17 10:09:22;;;;;;;4.43;4.13;;;17.50;63.40;;;;;;4918207;29;20429;-74
2023/03/17 10:11:53;;;;;;;4.80;4.40;;;17.70;64.20;;;;;;4917459;29;20395;-75
2023/03/17 10:14:46;;;;;;;4.30;4.00;;;18.00;64.50;;;;;;4917992;29;20415;-74
2023/03/17 10:17:27;;;;;;;4.43;4.13;;;18.20;61.90;;;;;;4917900;29;20474;-75
2023/03/17 10:20:04;;;;;;;4.37;4.07;;;18.50;61.20;;;;;;4917210;29;20502;-75
2023/03/17 10:22:37;;;;;;;4.43;4.13;;;18.60;59.90;;;;;;4932383;29;20458;-75
2023/03/17 10:25:11;;;;;;;4.20;3.90;;;18.70;59.90;;;;;;4916689;29;20961;-75
2023/03/17 10:27:37;;;;;;;3.60;3.40;;;18.90;60.20;;;;;;4932352;29;20407;-74
2023/03/17 10:30:19;;;;;;;4.73;4.37;;;19.10;61.20;;;;;;4916935;29;20419;-74
2023/03/17 10:32:45;;;;;;;4.80;4.40;;;19.30;60.20;;;;;;4916739;29;20403;-75
2023/03/17 10:35:12;;;;;;;4.63;4.23;;;19.40;58.30;;;;;;4917580;29;20421;-75
2023/03/17 10:37:38;;;;;;;4.40;4.10;;;19.50;58.40;;;;;;4917160;29;20454;-75
2023/03/17 10:40:09;;;;;;;4.43;4.00;;;19.60;57.90;;;;;;4916805;29;20426;-75
2023/03/17 10:42:46;;;;;;;4.37;4.10;;;19.70;58.50;;;;;;4917161;29;20978;-75
2023/03/17 10:45:33;;;;;;;4.50;4.20;;;19.70;57.40;;;;;;4917152;29;20466;-75
2023/03/17 10:48:01;;;;;;;4.50;4.20;;;19.80;57.80;;;;;;4916612;29;20422;-75
2023/03/17 10:50:34;;;;;;;4.73;4.33;;;19.70;56.50;;;;;;4916395;29;20451;-75
2023/03/17 10:53:07;;;;;;;5.17;4.87;;;19.40;56.50;;;;;;4916237;29;20418;-75
2023/03/17 10:55:46;;;;;;;4.50;4.20;;;19.40;59.60;;;;;;4917173;29;20413;-74
2023/03/17 10:58:14;;;;;;;4.77;4.37;;;19.40;59.00;;;;;;4917156;29;20501;-74
2023/03/17 11:00:57;;;;;;;4.87;4.43;;;19.50;57.30;;;;;;4916999;29;20418;-75
2023/03/17 11:03:26;;;;;;;4.60;4.20;;;19.50;57.80;;;;;;4917050;29;20399;-74
2023/03/17 11:06:07;;;;;;;4.20;3.90;;;19.40;57.20;;;;;;4930742;29;20794;-75
2023/03/17 11:09:04;;;;;;;7.97;4.37;;;19.30;58.20;;;;;;4916647;29;20446;-74
2023/03/17 11:11:33;;;;;;;4.40;4.10;;;19.20;57.50;;;;;;4916585;29;20525;-75
2023/03/17 11:14:12;;;;;;;3.80;3.60;;;19.30;58.40;;;;;;4916431;29;20433;-75
2023/03/17 11:16:52;;;;;;;4.10;3.80;;;19.40;57.50;;;;;;4916899;29;20410;-75
2023/03/17 11:19:19;;;;;;;4.10;3.80;;;19.50;57.90;;;;;;4916911;29;20403;-74
2023/03/17 11:22:03;;;;;;;4.30;4.00;;;19.70;59.80;;;;;;4916739;29;20450;-75
2023/03/17 11:24:40;;;;;;;3.60;3.40;;;19.90;58.90;;;;;;4916610;29;20474;-75
2023/03/17 11:27:26;;;;;;;4.33;4.03;;;20.10;58.70;;;;;;4930507;29;20653;-75
2023/03/17 11:30:09;;;;;;;4.43;4.13;;;20.10;57.00;;;;;;4915782;29;20495;-75
2023/03/17 11:33:02;;;;;;;4.40;4.10;;;20.30;56.50;;;;;;4915399;29;20896;-75
2023/03/17 11:36:10;;;;;;;5.20;4.90;;;20.50;56.60;;;;;;4916822;29;20421;-74
2023/03/17 11:38:55;;;;;;;4.47;4.17;;;20.50;55.80;;;;;;4916832;29;20521;-73
2023/03/17 11:41:43;;;;;;;3.73;3.53;;;20.50;55.70;;;;;;4916487;29;20470;-74
2023/03/17 11:44:37;;;;;;;4.33;4.03;;;20.40;54.90;;;;;;4915379;29;20477;-74
2023/03/17 11:47:09;;;;;;;5.17;4.83;;;20.40;56.90;;;;;;4915476;29;20512;-74
2023/03/17 11:49:37;;;;;;;4.10;3.80;;;20.50;56.60;;;;;;4916302;29;20449;-74
2023/03/17 11:52:31;;;;;;;4.03;3.83;;;20.50;56.30;;;;;;4930719;29;20407;-75
2023/03/17 11:55:11;;;;;;;4.10;3.87;;;20.70;55.70;;;;;;4915880;29;20417;-75
2023/03/17 11:58:04;;;;;;;6.63;4.60;;;20.70;57.30;;;;;;4916168;29;20481;-75
2023/03/17 12:00:37;;;;;;;3.63;3.33;;;20.70;55.00;;;;;;4914643;29;20434;-75
2023/03/17 12:03:29;;;;;;;3.33;3.23;;;20.50;55.30;;;;;;4917642;29;20411;-75
2023/03/17 12:06:06;;;;;;;3.33;3.13;;;20.60;55.70;;;;;;4934029;29;20394;-74
2023/03/17 12:08:44;;;;;;;3.93;3.60;;;20.60;55.20;;;;;;4920185;29;20489;-74
2023/03/17 12:11:19;;;;;;;4.33;3.97;;;20.30;54.30;;;;;;4918191;29;20414;-75
2023/03/17 12:14:12;;;;;;;4.30;4.00;;;20.00;54.90;;;;;;4920346;29;20414;-74
2023/03/17 12:17:17;;;;;;;4.10;3.80;;;19.90;55.30;;;;;;4919873;29;20431;-75
2023/03/17 12:19:57;;;;;;;4.03;3.73;;;19.90;55.90;;;;;;4934633;29;20406;-75
2023/03/17 12:22:32;;;;;;;4.00;3.77;;;19.50;56.30;;;;;;4920071;29;20462;-75
2023/03/17 12:25:04;;;;;;;4.50;4.20;;;19.40;56.40;;;;;;4919322;29;20402;-75
2023/03/17 12:27:51;;;;;;;4.20;3.67;;;19.40;56.50;;;;;;4918533;29;20513;-74
2023/03/17 12:30:28;;;;;;;4.60;4.30;;;19.40;57.10;;;;;;4919766;29;20426;-75
2023/03/17 12:33:06;;;;;;;4.37;3.97;;;19.20;56.70;;;;;;4919115;29;20410;-75
2023/03/17 12:35:35;;;;;;;4.30;4.00;;;19.30;57.40;;;;;;4918453;29;20414;-75
2023/03/17 12:38:09;;;;;;;4.43;3.90;;;19.40;57.70;;;;;;4919091;29;20414;-75
2023/03/17 12:40:40;;;;;;;4.37;3.80;;;19.40;57.40;;;;;;4919600;29;20799;-75
2023/03/17 12:43:25;;;;;;;4.47;4.07;;;19.40;57.80;;;;;;4918462;29;20776;-75
2023/03/17 12:46:09;;;;;;;4.30;3.90;;;19.40;57.90;;;;;;4918764;29;20421;-76
2023/03/17 12:48:41;;;;;;;3.93;3.73;;;19.20;57.10;;;;;;4919241;29;20455;-74
2023/03/17 12:51:27;;;;;;;4.20;3.90;;;19.10;56.80;;;;;;4918936;29;20430;-74
2023/03/17 12:53:54;;;;;;;3.80;3.60;;;18.90;57.30;;;;;;4918709;29;20491;-75
2023/03/17 12:56:29;;;;;;;4.10;3.90;;;19.00;58.10;;;;;;4919011;29;20493;-74
2023/03/17 12:59:15;;;;;;;3.77;3.47;;;19.00;57.80;;;;;;4918758;29;20829;-74
2023/03/17 13:01:52;;;;;;;3.80;3.60;;;18.80;57.50;;;;;;4919226;29;20860;-75